createdAt,value
2019-02-15T00:00:53.508Z,149.02
2019-02-15T00:01:30.459Z,126.30
2019-02-15T00:02:06.300Z,111.30
2019-02-15T00:02:42.040Z,118.10
2019-02-15T00:03:17.860Z,122.75
2019-02-15T00:03:53.503Z,134.97
2019-02-15T00:04:29.060Z,123.50
2019-02-15T00:05:04.840Z,137.82
2019-02-15T00:05:40.459Z,131.25
2019-02-15T00:06:16.428Z,120.82
2019-02-15T00:06:51.959Z,133.60
2019-02-15T00:07:27.579Z,124.55
2019-02-15T00:08:03.241Z,132.70
2019-02-15T00:08:39.040Z,128.60
2019-02-15T00:09:14.759Z,113.68
2019-02-15T00:09:50.619Z,117.85
2019-02-15T00:10:26.391Z,113.80
2019-02-15T00:11:02.017Z,120.97
2019-02-15T00:11:37.739Z,133.12
2019-02-15T00:12:13.600Z,134.67
2019-02-15T00:12:49.349Z,143.07
2019-02-15T00:13:24.949Z,132.50
2019-02-15T00:14:00.750Z,138.82
2019-02-15T00:14:47.632Z,141.28
2019-02-15T00:15:23.347Z,114.62
2019-02-15T00:15:58.966Z,138.47
2019-02-15T00:16:34.723Z,120.53
2019-02-15T00:17:10.682Z,123.78
2019-02-15T00:18:11.208Z,147.43
2019-02-15T00:19:05.681Z,119.82
2019-02-15T00:19:44.666Z,142.28
2019-02-15T00:20:31.484Z,113.32
2019-02-15T00:21:19.114Z,101.38
2019-02-15T00:21:55.127Z,106.83
2019-02-15T00:22:30.955Z,103.87
2019-02-15T00:23:06.674Z,106.07
2019-02-15T00:23:42.502Z,100.55
2019-02-15T00:24:18.242Z,127.50
2019-02-15T00:24:55.340Z,104.75
2019-02-15T00:25:30.943Z,100.90
2019-02-15T00:26:06.690Z,108.42
2019-02-15T00:26:42.344Z,120.47
2019-02-15T00:27:17.987Z,111.97
2019-02-15T00:27:53.583Z,119.17
2019-02-15T00:28:29.242Z,116.82
2019-02-15T00:29:04.984Z,130.67
2019-02-15T00:29:40.582Z,107.10
2019-02-15T00:30:16.251Z,107.10
2019-02-15T00:30:52.083Z,123.67
2019-02-15T00:31:27.743Z,113.32
2019-02-15T00:32:03.302Z,118.77
2019-02-15T00:32:39.051Z,104.95
2019-02-15T00:33:14.731Z,111.20
2019-02-15T00:33:50.491Z,127.55
2019-02-15T00:34:26.235Z,108.35
2019-02-15T00:35:01.844Z,103.00
2019-02-15T00:35:37.607Z,96.95
2019-02-15T00:36:13.440Z,105.47
2019-02-15T00:36:49.130Z,113.60
2019-02-15T00:37:24.707Z,99.13
2019-02-15T00:38:00.248Z,97.75
2019-02-15T00:38:36.087Z,101.90
2019-02-15T00:39:11.749Z,110.10
2019-02-15T00:39:47.569Z,115.20
2019-02-15T00:40:23.299Z,113.68
2019-02-15T00:40:58.964Z,109.55
2019-02-15T00:41:34.583Z,111.75
2019-02-15T00:42:10.387Z,114.62
2019-02-15T00:42:46.175Z,108.95
2019-02-15T00:43:22.490Z,112.03
2019-02-15T00:43:58.582Z,113.20
2019-02-15T00:44:34.343Z,117.05
2019-02-15T00:45:11.250Z,117.20
2019-02-15T00:45:57.986Z,120.30
2019-02-15T00:46:39.164Z,118.42
2019-02-15T00:47:32.485Z,117.72
2019-02-15T00:48:14.985Z,111.90
2019-02-15T00:48:50.690Z,109.37
2019-02-15T00:50:00.285Z,116.10
2019-02-15T00:50:54.818Z,110.28
2019-02-15T00:51:44.021Z,99.87
2019-02-15T00:52:38.569Z,116.73
2019-02-15T00:53:29.749Z,97.62
2019-02-15T00:54:21.679Z,108.75
2019-02-15T00:55:25.679Z,107.92
2019-02-15T00:56:20.055Z,112.70
2019-02-15T00:57:17.500Z,114.57
2019-02-15T00:58:10.947Z,104.38
2019-02-15T00:59:08.082Z,99.67
2019-02-15T01:00:08.510Z,95.62
2019-02-15T01:01:01.542Z,105.90
2019-02-15T01:01:54.522Z,97.40
2019-02-15T01:02:58.180Z,114.22
2019-02-15T01:03:52.859Z,88.25
2019-02-15T01:04:45.799Z,100.62
2019-02-15T01:05:44.978Z,101.50
2019-02-15T01:06:48.479Z,93.50
2019-02-15T01:07:34.880Z,91.82
2019-02-15T01:08:20.862Z,93.67
2019-02-15T01:09:10.132Z,102.78
2019-02-15T01:09:54.332Z,85.60
2019-02-15T01:10:36.003Z,89.15
2019-02-15T01:11:22.224Z,97.20
2019-02-15T01:12:19.743Z,111.37
2019-02-15T01:13:03.570Z,102.22
2019-02-15T01:13:39.388Z,75.95
2019-02-15T01:14:15.166Z,74.65
2019-02-15T01:14:50.825Z,71.37
2019-02-15T01:15:26.446Z,70.47
2019-02-15T01:16:02.027Z,76.72
2019-02-15T01:16:37.573Z,70.95
2019-02-15T01:17:13.252Z,77.70
2019-02-15T01:17:49.009Z,77.65
2019-02-15T01:18:24.746Z,90.65
2019-02-15T01:19:00.278Z,85.55
2019-02-15T01:19:35.996Z,83.75
2019-02-15T01:20:11.754Z,61.42
2019-02-15T01:20:47.468Z,75.50
2019-02-15T01:21:23.059Z,66.82
2019-02-15T01:21:58.604Z,70.40
2019-02-15T01:22:34.165Z,75.72
2019-02-15T01:23:10.583Z,72.70
2019-02-15T01:23:46.405Z,69.32
2019-02-15T01:24:22.345Z,68.62
2019-02-15T01:24:57.996Z,71.50
2019-02-15T01:25:39.862Z,73.47
2019-02-15T01:26:23.482Z,71.72
2019-02-15T01:27:02.406Z,79.35
2019-02-15T01:27:44.591Z,77.20
2019-02-15T01:28:39.127Z,64.15
2019-02-15T01:29:45.969Z,69.30
2019-02-15T01:30:39.305Z,72.00
2019-02-15T01:31:28.927Z,70.55
2019-02-15T01:32:23.662Z,62.05
2019-02-15T01:33:27.867Z,61.83
2019-02-15T01:34:34.842Z,67.42
2019-02-15T01:35:35.242Z,63.38
2019-02-15T01:36:32.794Z,55.28
2019-02-15T01:37:29.949Z,53.33
2019-02-15T01:38:27.381Z,49.08
2019-02-15T01:39:24.620Z,56.25
2019-02-15T01:40:27.920Z,48.30
2019-02-15T01:41:20.334Z,53.02
2019-02-15T01:42:13.802Z,55.85
2019-02-15T01:43:14.218Z,59.88
2019-02-15T01:43:57.199Z,61.68
2019-02-15T01:44:42.099Z,54.53
2019-02-15T01:45:27.847Z,74.87
2019-02-15T01:46:31.739Z,69.03
2019-02-15T01:47:29.279Z,63.35
2019-02-15T01:48:04.860Z,64.45
2019-02-15T01:48:40.518Z,70.52
2019-02-15T01:49:16.319Z,66.22
2019-02-15T01:49:52.039Z,57.67
2019-02-15T01:50:28.150Z,74.42
2019-02-15T01:51:03.825Z,71.87
2019-02-15T01:51:39.461Z,71.40
2019-02-15T01:52:15.150Z,55.05
2019-02-15T01:52:50.840Z,57.80
2019-02-15T01:53:26.440Z,56.95
2019-02-15T01:54:02.008Z,63.00
2019-02-15T01:54:37.838Z,58.40
2019-02-15T01:55:13.770Z,77.15
2019-02-15T01:55:49.404Z,66.40
2019-02-15T01:56:24.948Z,56.10
2019-02-15T01:57:00.599Z,57.03
2019-02-15T01:57:36.425Z,68.87
2019-02-15T01:58:12.103Z,59.33
2019-02-15T01:58:47.825Z,57.67
2019-02-15T01:59:23.646Z,59.80
2019-02-15T01:59:59.387Z,55.75
2019-02-15T02:00:35.779Z,55.20
2019-02-15T02:01:11.420Z,60.20
2019-02-15T02:01:47.145Z,57.45
2019-02-15T02:02:24.225Z,55.92
2019-02-15T02:03:00.168Z,68.10
2019-02-15T02:03:35.998Z,58.55
2019-02-15T02:04:11.763Z,64.10
2019-02-15T02:04:47.503Z,66.05
2019-02-15T02:05:23.314Z,80.30
2019-02-15T02:05:58.891Z,69.60
2019-02-15T02:06:34.715Z,71.35
2019-02-15T02:07:10.538Z,78.15
2019-02-15T02:07:46.252Z,78.95
2019-02-15T02:08:25.216Z,82.30
2019-02-15T02:09:00.978Z,75.60
2019-02-15T02:09:37.130Z,76.02
2019-02-15T02:10:13.241Z,84.28
2019-02-15T02:10:49.102Z,71.00
2019-02-15T02:11:24.841Z,68.30
2019-02-15T02:12:00.532Z,87.62
2019-02-15T02:12:36.303Z,94.25
2019-02-15T02:13:12.046Z,79.17
2019-02-15T02:13:49.717Z,67.70
2019-02-15T02:14:24.901Z,67.62
2019-02-15T02:15:00.502Z,73.25
2019-02-15T02:15:36.222Z,65.80
2019-02-15T02:16:12.041Z,66.28
2019-02-15T02:16:47.803Z,79.30
2019-02-15T02:17:23.302Z,81.57
2019-02-15T02:17:59.090Z,86.05
2019-02-15T02:18:34.692Z,79.95
2019-02-15T02:19:10.390Z,86.78
2019-02-15T02:19:46.082Z,79.50
2019-02-15T02:20:21.582Z,79.70
2019-02-15T02:20:57.282Z,80.30
2019-02-15T02:21:32.764Z,93.55
2019-02-15T02:22:08.531Z,91.35
2019-02-15T02:22:44.348Z,63.02
2019-02-15T02:23:20.473Z,81.80
2019-02-15T02:23:56.230Z,53.90
2019-02-15T02:24:31.806Z,34.48
2019-02-15T02:25:07.585Z,38.85
2019-02-15T02:25:43.241Z,40.85
2019-02-15T02:26:18.906Z,45.67
2019-02-15T02:26:54.721Z,44.23
2019-02-15T02:27:30.548Z,36.13
2019-02-15T02:28:06.342Z,39.92
2019-02-15T02:28:42.086Z,45.25
2019-02-15T02:29:17.754Z,45.30
2019-02-15T02:29:53.428Z,47.30
2019-02-15T02:30:29.397Z,47.38
2019-02-15T02:31:05.089Z,56.18
2019-02-15T02:31:40.747Z,43.92
2019-02-15T02:32:16.392Z,43.20
2019-02-15T02:32:52.067Z,48.58
2019-02-15T02:33:27.827Z,49.83
2019-02-15T02:34:03.590Z,47.48
2019-02-15T02:34:39.388Z,54.65
2019-02-15T02:35:15.146Z,65.80
2019-02-15T02:35:50.685Z,76.00
2019-02-15T02:36:54.262Z,56.05
2019-02-15T02:37:30.031Z,45.25
2019-02-15T02:38:05.642Z,49.42
2019-02-15T02:38:41.550Z,42.88
2019-02-15T02:39:17.281Z,50.83
2019-02-15T02:39:52.981Z,59.30
2019-02-15T02:40:28.822Z,56.08
2019-02-15T02:41:04.493Z,50.43
2019-02-15T02:41:40.339Z,44.80
2019-02-15T02:42:15.880Z,50.28
2019-02-15T02:42:51.455Z,51.95
2019-02-15T02:43:27.032Z,48.05
2019-02-15T02:44:02.607Z,48.05
2019-02-15T02:44:38.375Z,45.25
2019-02-15T02:45:13.936Z,47.58
2019-02-15T02:45:49.560Z,53.48
2019-02-15T02:46:25.200Z,50.98
2019-02-15T02:47:00.842Z,55.52
2019-02-15T02:47:36.320Z,52.17
2019-02-15T02:48:12.467Z,59.83
2019-02-15T02:48:48.209Z,49.73
2019-02-15T02:49:23.765Z,51.80
2019-02-15T02:49:59.356Z,51.37
2019-02-15T02:50:35.135Z,52.05
2019-02-15T02:51:10.944Z,49.93
2019-02-15T02:51:46.739Z,47.33
2019-02-15T02:52:22.481Z,42.62
2019-02-15T02:52:58.197Z,39.75
2019-02-15T02:53:33.925Z,44.33
2019-02-15T02:54:09.525Z,49.10
2019-02-15T02:54:45.355Z,38.48
2019-02-15T02:55:21.054Z,36.83
2019-02-15T02:55:56.762Z,39.42
2019-02-15T02:56:32.663Z,40.75
2019-02-15T02:57:08.286Z,38.88
2019-02-15T02:57:43.803Z,39.08
2019-02-15T02:58:19.348Z,35.68
2019-02-15T02:58:54.945Z,38.08
2019-02-15T02:59:30.683Z,41.53
2019-02-15T03:00:06.677Z,43.90
2019-02-15T03:00:43.361Z,40.03
2019-02-15T03:01:19.091Z,43.00
2019-02-15T03:01:54.683Z,43.98
2019-02-15T03:02:30.418Z,40.33
2019-02-15T03:03:06.123Z,41.58
2019-02-15T03:03:41.860Z,42.78
2019-02-15T03:04:17.600Z,45.10
2019-02-15T03:04:53.340Z,45.88
2019-02-15T03:05:28.931Z,42.80
2019-02-15T03:06:04.544Z,41.63
2019-02-15T03:06:40.324Z,44.45
2019-02-15T03:07:16.082Z,41.05
2019-02-15T03:07:51.740Z,39.85
2019-02-15T03:08:27.368Z,43.78
2019-02-15T03:09:04.226Z,40.17
2019-02-15T03:09:39.744Z,41.63
2019-02-15T03:10:15.501Z,38.65
2019-02-15T03:10:51.219Z,46.13
2019-02-15T03:11:27.067Z,44.70
2019-02-15T03:12:02.667Z,44.63
2019-02-15T03:12:38.340Z,37.50
2019-02-15T03:13:14.110Z,43.15
2019-02-15T03:13:49.949Z,45.12
2019-02-15T03:14:25.599Z,52.38
2019-02-15T03:15:01.413Z,48.98
2019-02-15T03:15:37.088Z,46.48
2019-02-15T03:16:12.811Z,52.62
2019-02-15T03:16:48.601Z,40.08
2019-02-15T03:17:24.332Z,44.80
2019-02-15T03:17:59.986Z,45.60
2019-02-15T03:18:35.667Z,45.58
2019-02-15T03:19:11.315Z,55.08
2019-02-15T03:19:47.038Z,63.73
2019-02-15T03:20:30.972Z,64.10
2019-02-15T03:20:59.926Z,62.40
2019-02-15T03:21:35.619Z,53.23
2019-02-15T03:22:11.240Z,48.65
2019-02-15T03:22:46.892Z,46.40
2019-02-15T03:23:22.609Z,48.68
2019-02-15T03:23:58.224Z,41.10
2019-02-15T03:24:33.730Z,43.00
2019-02-15T03:25:09.522Z,45.58
2019-02-15T03:25:45.328Z,42.40
2019-02-15T03:26:20.946Z,44.88
2019-02-15T03:26:56.673Z,40.60
2019-02-15T03:27:32.409Z,42.65
2019-02-15T03:28:08.047Z,43.65
2019-02-15T03:28:43.788Z,45.52
2019-02-15T03:29:19.495Z,44.18
2019-02-15T03:29:55.249Z,49.83
2019-02-15T03:30:31.005Z,54.75
2019-02-15T03:31:06.978Z,64.58
2019-02-15T03:31:42.743Z,43.20
2019-02-15T03:32:18.427Z,47.98
2019-02-15T03:32:53.961Z,56.23
2019-02-15T03:33:29.496Z,53.45
2019-02-15T03:34:05.285Z,47.95
2019-02-15T03:34:41.039Z,53.30
2019-02-15T03:35:16.659Z,51.02
2019-02-15T03:36:03.189Z,49.83
2019-02-15T03:36:56.552Z,51.73
2019-02-15T03:37:40.047Z,46.73
2019-02-15T03:38:37.593Z,50.98
2019-02-15T03:39:41.192Z,49.70
2019-02-15T03:40:21.334Z,47.55
2019-02-15T03:41:00.354Z,50.88
2019-02-15T03:41:36.164Z,48.60
2019-02-15T03:42:14.387Z,52.98
2019-02-15T03:42:50.202Z,48.30
2019-02-15T03:43:25.717Z,52.70
2019-02-15T03:44:01.371Z,56.10
2019-02-15T03:44:37.002Z,50.73
2019-02-15T03:45:13.187Z,48.85
2019-02-15T03:45:48.881Z,55.23
2019-02-15T03:46:24.722Z,51.42
2019-02-15T03:47:00.358Z,46.75
2019-02-15T03:47:36.139Z,52.98
2019-02-15T03:48:12.020Z,79.87
2019-02-15T03:48:47.718Z,63.40
2019-02-15T03:49:23.587Z,62.55
2019-02-15T03:49:59.126Z,67.42
2019-02-15T03:50:34.985Z,57.10
2019-02-15T03:51:10.641Z,51.25
2019-02-15T03:51:46.326Z,51.88
2019-02-15T03:52:21.967Z,53.02
2019-02-15T03:52:57.826Z,54.58
2019-02-15T03:53:33.529Z,58.02
2019-02-15T03:54:09.249Z,48.85
2019-02-15T03:54:44.941Z,50.83
2019-02-15T03:55:20.669Z,50.48
2019-02-15T03:55:56.268Z,51.10
2019-02-15T03:56:32.000Z,59.48
2019-02-15T03:57:07.608Z,54.00
2019-02-15T03:57:43.785Z,49.18
2019-02-15T03:58:19.720Z,49.65
2019-02-15T03:58:55.462Z,49.27
2019-02-15T03:59:31.168Z,48.08
2019-02-15T04:00:07.707Z,48.87
2019-02-15T04:00:43.519Z,47.00
2019-02-15T04:01:19.381Z,56.45
2019-02-15T04:01:55.061Z,54.23
2019-02-15T04:02:30.962Z,61.20
2019-02-15T04:03:06.621Z,57.20
2019-02-15T04:03:42.522Z,52.15
2019-02-15T04:04:18.171Z,59.55
2019-02-15T04:04:54.635Z,54.98
2019-02-15T04:05:30.562Z,65.47
2019-02-15T04:06:06.441Z,61.88
2019-02-15T04:06:42.805Z,55.38
2019-02-15T04:07:18.442Z,61.73
2019-02-15T04:07:54.710Z,66.00
2019-02-15T04:08:30.588Z,69.97
2019-02-15T04:09:07.241Z,103.22
2019-02-15T04:09:43.962Z,80.20
2019-02-15T04:10:19.608Z,70.72
2019-02-15T04:10:55.280Z,75.03
2019-02-15T04:11:30.984Z,72.42
2019-02-15T04:12:06.544Z,60.80
2019-02-15T04:12:42.225Z,59.05
2019-02-15T04:13:17.945Z,59.98
2019-02-15T04:13:53.684Z,62.05
2019-02-15T04:14:32.952Z,85.25
2019-02-15T04:15:07.531Z,84.95
2019-02-15T04:15:43.162Z,92.53
2019-02-15T04:16:18.710Z,112.15
2019-02-15T04:16:54.315Z,85.95
2019-02-15T04:17:29.957Z,77.47
2019-02-15T04:18:05.549Z,75.45
2019-02-15T04:18:41.041Z,66.97
2019-02-15T04:19:16.702Z,66.07
2019-02-15T04:19:52.301Z,72.55
2019-02-15T04:20:27.875Z,64.25
2019-02-15T04:21:03.488Z,70.52
2019-02-15T04:21:39.132Z,59.42
2019-02-15T04:22:14.690Z,67.62
2019-02-15T04:22:50.343Z,67.75
2019-02-15T04:23:25.923Z,89.97
2019-02-15T04:24:02.218Z,73.83
2019-02-15T04:24:37.851Z,67.03
2019-02-15T04:25:13.462Z,71.47
2019-02-15T04:25:49.346Z,64.70
2019-02-15T04:26:25.005Z,71.20
2019-02-15T04:27:00.642Z,64.03
2019-02-15T04:27:36.634Z,64.72
2019-02-15T04:28:12.368Z,66.02
2019-02-15T04:28:48.153Z,55.78
2019-02-15T04:29:23.893Z,60.92
2019-02-15T04:29:59.603Z,63.58
2019-02-15T04:30:35.380Z,65.47
2019-02-15T04:31:11.533Z,64.20
2019-02-15T04:31:47.292Z,57.30
2019-02-15T04:32:22.952Z,66.67
2019-02-15T04:32:58.622Z,61.30
2019-02-15T04:33:34.818Z,59.25
2019-02-15T04:34:10.586Z,64.85
2019-02-15T04:34:46.242Z,62.15
2019-02-15T04:35:22.045Z,63.42
2019-02-15T04:35:57.829Z,61.20
2019-02-15T04:36:33.645Z,64.37
2019-02-15T04:37:09.550Z,68.17
2019-02-15T04:37:45.336Z,76.30
2019-02-15T04:38:21.052Z,76.37
2019-02-15T04:38:56.669Z,67.90
2019-02-15T04:39:32.323Z,72.70
2019-02-15T04:40:08.979Z,78.35
2019-02-15T04:40:44.518Z,83.42
2019-02-15T04:41:20.350Z,85.15
2019-02-15T04:41:56.049Z,68.90
2019-02-15T04:42:31.868Z,79.07
2019-02-15T04:43:07.579Z,70.42
2019-02-15T04:43:43.399Z,70.55
2019-02-15T04:44:19.019Z,74.22
2019-02-15T04:44:54.729Z,80.42
2019-02-15T04:45:30.425Z,67.80
2019-02-15T04:46:06.238Z,66.05
2019-02-15T04:46:42.131Z,73.40
2019-02-15T04:47:18.139Z,70.57
2019-02-15T04:47:53.727Z,67.20
2019-02-15T04:48:29.387Z,69.87
2019-02-15T04:49:05.173Z,65.03
2019-02-15T04:49:41.056Z,69.92
2019-02-15T04:50:17.037Z,70.50
2019-02-15T04:50:52.800Z,65.20
2019-02-15T04:51:28.501Z,70.40
2019-02-15T04:52:04.179Z,65.17
2019-02-15T04:52:39.813Z,70.85
2019-02-15T04:53:15.340Z,68.45
2019-02-15T04:53:50.933Z,75.55
2019-02-15T04:54:26.680Z,102.07
2019-02-15T04:55:02.360Z,113.10
2019-02-15T04:55:38.016Z,136.88
2019-02-15T04:56:13.594Z,80.80
2019-02-15T04:56:49.302Z,111.65
2019-02-15T04:57:25.102Z,86.28
2019-02-15T04:58:00.793Z,81.53
2019-02-15T04:58:36.463Z,68.25
2019-02-15T04:59:12.225Z,79.05
2019-02-15T04:59:47.979Z,76.40
2019-02-15T05:00:23.700Z,69.97
2019-02-15T05:00:59.300Z,73.72
2019-02-15T05:01:34.967Z,74.27
2019-02-15T05:02:10.466Z,79.90
2019-02-15T05:02:46.240Z,78.50
2019-02-15T05:03:21.989Z,71.22
2019-02-15T05:03:57.807Z,73.00
2019-02-15T05:04:33.569Z,85.90
2019-02-15T05:05:09.447Z,91.63
2019-02-15T05:05:44.978Z,85.35
2019-02-15T05:06:20.540Z,93.10
2019-02-15T05:06:56.211Z,97.33
2019-02-15T05:07:31.991Z,78.75
2019-02-15T05:08:07.471Z,82.92
2019-02-15T05:08:43.048Z,99.60
2019-02-15T05:09:18.588Z,82.80
2019-02-15T05:09:54.271Z,76.77
2019-02-15T05:10:29.966Z,83.35
2019-02-15T05:11:05.529Z,99.22
2019-02-15T05:11:41.281Z,77.20
2019-02-15T05:12:17.861Z,84.00
2019-02-15T05:12:53.491Z,86.63
2019-02-15T05:13:29.104Z,73.35
2019-02-15T05:14:04.803Z,78.12
2019-02-15T05:14:40.546Z,72.75
2019-02-15T05:15:16.350Z,73.50
2019-02-15T05:15:52.033Z,74.22
2019-02-15T05:16:27.544Z,79.12
2019-02-15T05:17:03.171Z,71.28
2019-02-15T05:17:38.713Z,76.95
2019-02-15T05:18:14.508Z,78.65
2019-02-15T05:18:50.227Z,76.60
2019-02-15T05:19:25.842Z,76.87
2019-02-15T05:20:01.486Z,75.70
2019-02-15T05:20:37.411Z,85.90
2019-02-15T05:21:13.064Z,77.78
2019-02-15T05:21:48.744Z,75.57
2019-02-15T05:22:24.685Z,79.15
2019-02-15T05:23:00.485Z,78.37
2019-02-15T05:23:36.144Z,77.40
2019-02-15T05:24:11.831Z,74.62
2019-02-15T05:24:47.930Z,74.07
2019-02-15T05:25:23.637Z,85.30
2019-02-15T05:25:59.393Z,93.20
2019-02-15T05:26:35.213Z,85.32
2019-02-15T05:27:10.878Z,84.10
2019-02-15T05:27:46.542Z,79.72
2019-02-15T05:28:22.318Z,92.25
2019-02-15T05:28:57.968Z,78.07
2019-02-15T05:29:33.948Z,76.72
2019-02-15T05:30:09.824Z,73.57
2019-02-15T05:30:45.626Z,74.03
2019-02-15T05:31:21.730Z,74.67
2019-02-15T05:31:57.533Z,73.57
2019-02-15T05:32:33.153Z,76.05
2019-02-15T05:33:08.655Z,77.08
2019-02-15T05:33:44.448Z,74.45
2019-02-15T05:34:20.279Z,78.52
2019-02-15T05:34:55.997Z,78.05
2019-02-15T05:35:31.822Z,92.78
2019-02-15T05:36:07.414Z,84.90
2019-02-15T05:36:42.960Z,82.65
2019-02-15T05:37:18.499Z,87.95
2019-02-15T05:37:54.161Z,86.97
2019-02-15T05:38:30.363Z,78.28
2019-02-15T05:39:08.398Z,83.35
2019-02-15T05:39:43.873Z,77.50
2019-02-15T05:40:19.614Z,66.85
2019-02-15T05:40:55.335Z,66.60
2019-02-15T05:41:30.931Z,68.80
2019-02-15T05:42:06.645Z,76.20
2019-02-15T05:42:42.382Z,73.92
2019-02-15T05:43:18.351Z,76.53
2019-02-15T05:43:54.190Z,88.50
2019-02-15T05:44:30.083Z,95.50
2019-02-15T05:45:06.065Z,71.97
2019-02-15T05:45:42.471Z,77.30
2019-02-15T05:46:18.517Z,70.47
2019-02-15T05:46:54.651Z,88.03
2019-02-15T05:47:30.872Z,78.90
2019-02-15T05:48:07.066Z,83.12
2019-02-15T05:48:43.725Z,85.00
2019-02-15T05:49:19.550Z,79.70
2019-02-15T05:49:55.747Z,79.07
2019-02-15T05:50:31.709Z,90.83
2019-02-15T05:51:07.965Z,92.85
2019-02-15T05:51:44.102Z,84.92
2019-02-15T05:52:19.983Z,79.40
2019-02-15T05:52:56.042Z,71.72
2019-02-15T05:53:32.243Z,73.15
2019-02-15T05:54:08.433Z,75.87
2019-02-15T05:54:44.901Z,68.87
2019-02-15T05:55:21.289Z,84.77
2019-02-15T05:55:57.199Z,105.05
2019-02-15T05:56:33.259Z,112.83
2019-02-15T05:57:09.706Z,109.55
2019-02-15T05:57:45.658Z,113.35
2019-02-15T05:58:21.576Z,115.95
2019-02-15T05:58:57.889Z,99.90
2019-02-15T05:59:33.916Z,111.55
2019-02-15T06:00:10.758Z,107.83
2019-02-15T06:00:46.809Z,84.80
2019-02-15T06:01:23.506Z,81.72
2019-02-15T06:01:59.556Z,80.38
2019-02-15T06:02:35.576Z,80.50
2019-02-15T06:03:13.708Z,79.25
2019-02-15T06:03:49.076Z,77.55
2019-02-15T06:04:24.716Z,80.53
2019-02-15T06:05:00.464Z,90.03
2019-02-15T06:05:36.218Z,94.50
2019-02-15T06:06:12.092Z,87.85
2019-02-15T06:06:47.750Z,95.42
2019-02-15T06:07:23.631Z,94.47
2019-02-15T06:07:59.293Z,84.77
2019-02-15T06:08:35.452Z,85.80
2019-02-15T06:09:11.162Z,76.95
2019-02-15T06:09:46.870Z,73.83
2019-02-15T06:10:22.557Z,76.10
2019-02-15T06:11:06.455Z,80.67
2019-02-15T06:11:35.620Z,80.20
2019-02-15T06:12:11.521Z,97.00
2019-02-15T06:12:47.165Z,81.97
2019-02-15T06:13:23.267Z,78.83
2019-02-15T06:13:58.993Z,70.12
2019-02-15T06:14:34.741Z,72.82
2019-02-15T06:15:15.071Z,84.37
2019-02-15T06:15:47.945Z,84.55
2019-02-15T06:16:23.675Z,72.82
2019-02-15T06:17:01.635Z,79.40
2019-02-15T06:17:36.642Z,70.00
2019-02-15T06:18:12.224Z,67.05
2019-02-15T06:18:48.803Z,71.47
2019-02-15T06:19:24.470Z,64.85
2019-02-15T06:20:00.330Z,56.40
2019-02-15T06:20:36.140Z,57.20
2019-02-15T06:21:11.785Z,56.30
2019-02-15T06:21:47.470Z,60.52
2019-02-15T06:22:23.283Z,65.05
2019-02-15T06:22:59.029Z,59.95
2019-02-15T06:23:34.694Z,64.32
2019-02-15T06:24:10.295Z,59.60
2019-02-15T06:24:46.027Z,61.13
2019-02-15T06:25:21.809Z,61.65
2019-02-15T06:25:57.664Z,61.75
2019-02-15T06:26:33.378Z,61.10
2019-02-15T06:27:09.119Z,60.20
2019-02-15T06:27:44.959Z,56.65
2019-02-15T06:28:20.568Z,70.97
2019-02-15T06:28:56.233Z,74.25
2019-02-15T06:29:32.482Z,61.70
2019-02-15T06:30:08.570Z,60.48
2019-02-15T06:30:44.183Z,68.50
2019-02-15T06:31:19.969Z,66.90
2019-02-15T06:31:55.750Z,67.58
2019-02-15T06:32:31.504Z,66.80
2019-02-15T06:33:07.321Z,64.87
2019-02-15T06:33:43.024Z,71.87
2019-02-15T06:34:18.880Z,79.10
2019-02-15T06:34:54.574Z,68.62
2019-02-15T06:35:30.352Z,67.27
2019-02-15T06:36:06.031Z,65.83
2019-02-15T06:36:41.941Z,73.87
2019-02-15T06:37:17.469Z,83.80
2019-02-15T06:37:53.327Z,84.17
2019-02-15T06:38:34.777Z,79.20
2019-02-15T06:39:08.062Z,78.95
2019-02-15T06:39:43.800Z,98.60
2019-02-15T06:40:19.587Z,81.15
2019-02-15T06:40:55.237Z,74.77
2019-02-15T06:41:30.796Z,75.42
2019-02-15T06:42:06.767Z,77.87
2019-02-15T06:42:42.483Z,77.37
2019-02-15T06:43:18.228Z,66.80
2019-02-15T06:43:53.918Z,81.65
2019-02-15T06:44:29.551Z,94.07
2019-02-15T06:45:06.003Z,106.60
2019-02-15T06:45:41.884Z,103.45
2019-02-15T06:46:18.012Z,96.85
2019-02-15T06:46:53.615Z,69.12
2019-02-15T06:47:29.215Z,77.12
2019-02-15T06:48:04.892Z,92.95
2019-02-15T06:48:40.750Z,80.92
2019-02-15T06:49:16.382Z,84.10
2019-02-15T06:49:52.000Z,73.57
2019-02-15T06:50:27.801Z,82.53
2019-02-15T06:51:03.509Z,79.85
2019-02-15T06:51:39.129Z,72.65
2019-02-15T06:52:14.778Z,81.57
2019-02-15T06:52:50.654Z,64.50
2019-02-15T06:53:26.286Z,65.05
2019-02-15T06:54:02.024Z,87.60
2019-02-15T06:54:37.782Z,106.07
2019-02-15T06:55:13.574Z,80.15
2019-02-15T06:55:49.683Z,75.80
2019-02-15T06:56:25.283Z,72.03
2019-02-15T06:57:01.022Z,67.22
2019-02-15T06:57:36.736Z,75.80
2019-02-15T06:58:12.589Z,76.15
2019-02-15T06:59:06.240Z,61.20
2019-02-15T07:00:09.945Z,68.00
2019-02-15T07:01:14.947Z,58.50
2019-02-15T07:02:09.547Z,74.22
2019-02-15T07:03:04.016Z,99.35
2019-02-15T07:03:58.599Z,69.95
2019-02-15T07:04:42.348Z,65.67
2019-02-15T07:05:26.048Z,68.02
2019-02-15T07:06:01.917Z,70.03
2019-02-15T07:06:37.619Z,69.82
2019-02-15T07:07:13.309Z,79.60
2019-02-15T07:07:49.001Z,65.30
2019-02-15T07:08:24.649Z,71.30
2019-02-15T07:09:00.516Z,69.62
2019-02-15T07:09:36.301Z,67.45
2019-02-15T07:10:12.069Z,91.08
2019-02-15T07:10:47.740Z,91.08
2019-02-15T07:11:23.449Z,90.45
2019-02-15T07:11:59.221Z,86.97
2019-02-15T07:12:35.300Z,77.78
2019-02-15T07:13:10.719Z,90.00
2019-02-15T07:13:46.452Z,90.12
2019-02-15T07:14:22.230Z,87.80
2019-02-15T07:14:58.056Z,89.32
2019-02-15T07:15:34.155Z,84.62
2019-02-15T07:16:11.201Z,90.97
2019-02-15T07:16:46.944Z,75.08
2019-02-15T07:17:22.985Z,128.80
2019-02-15T07:17:58.945Z,154.32
2019-02-15T07:18:34.842Z,117.17
2019-02-15T07:19:10.701Z,100.97
2019-02-15T07:19:46.528Z,101.92
2019-02-15T07:20:22.106Z,86.32
2019-02-15T07:20:58.042Z,74.58
2019-02-15T07:21:34.023Z,76.15
2019-02-15T07:22:09.926Z,72.32
2019-02-15T07:22:45.862Z,80.07
2019-02-15T07:23:21.665Z,78.25
2019-02-15T07:23:57.382Z,84.77
2019-02-15T07:24:33.379Z,72.60
2019-02-15T07:25:10.106Z,66.50
2019-02-15T07:25:45.804Z,74.00
2019-02-15T07:26:21.789Z,71.95
2019-02-15T07:26:57.511Z,61.65
2019-02-15T07:27:33.155Z,63.52
2019-02-15T07:28:08.917Z,65.37
2019-02-15T07:28:44.710Z,62.00
2019-02-15T07:29:20.520Z,64.20
2019-02-15T07:29:56.198Z,63.63
2019-02-15T07:30:31.818Z,61.48
2019-02-15T07:31:07.696Z,58.45
2019-02-15T07:31:43.490Z,55.38
2019-02-15T07:32:19.363Z,60.28
2019-02-15T07:32:55.239Z,57.20
2019-02-15T07:33:30.900Z,61.18
2019-02-15T07:34:06.608Z,59.48
2019-02-15T07:34:42.281Z,58.60
2019-02-15T07:35:18.059Z,57.25
2019-02-15T07:35:54.342Z,58.80
2019-02-15T07:36:31.532Z,55.43
2019-02-15T07:37:07.305Z,58.98
2019-02-15T07:37:43.376Z,58.87
2019-02-15T07:38:19.312Z,52.25
2019-02-15T07:38:55.201Z,57.67
2019-02-15T07:39:30.881Z,53.25
2019-02-15T07:40:07.403Z,53.90
2019-02-15T07:40:43.243Z,53.65
2019-02-15T07:41:19.460Z,52.60
2019-02-15T07:41:55.619Z,50.10
2019-02-15T07:42:31.907Z,53.52
2019-02-15T07:43:07.859Z,53.00
2019-02-15T07:43:43.763Z,49.77
2019-02-15T07:44:20.186Z,51.08
2019-02-15T07:44:55.988Z,51.58
2019-02-15T07:45:31.738Z,48.63
2019-02-15T07:46:07.458Z,48.52
2019-02-15T07:46:43.297Z,49.55
2019-02-15T07:47:19.140Z,51.02
2019-02-15T07:47:55.079Z,52.15
2019-02-15T07:48:30.927Z,52.23
2019-02-15T07:49:07.054Z,51.15
2019-02-15T07:49:43.152Z,50.28
2019-02-15T07:50:19.396Z,50.78
2019-02-15T07:50:55.067Z,50.90
2019-02-15T07:51:31.390Z,51.28
2019-02-15T07:52:07.212Z,49.23
2019-02-15T07:52:42.950Z,50.00
2019-02-15T07:53:19.751Z,54.70
2019-02-15T07:53:55.563Z,51.15
2019-02-15T07:54:31.341Z,53.33
2019-02-15T07:55:08.172Z,50.55
2019-02-15T07:55:43.948Z,52.00
2019-02-15T07:56:23.523Z,51.20
2019-02-15T07:56:59.125Z,52.33
2019-02-15T07:57:34.828Z,53.45
2019-02-15T07:58:10.388Z,52.10
2019-02-15T07:58:46.339Z,53.20
2019-02-15T07:59:22.230Z,58.00
2019-02-15T08:00:00.509Z,58.15
2019-02-15T08:00:35.967Z,52.53
2019-02-15T08:01:11.568Z,52.62
2019-02-15T08:01:47.635Z,64.20
2019-02-15T08:02:23.256Z,69.10